createdAt,value
2018-03-23T00:01:38.941Z,28.00
2018-03-23T00:04:06.501Z,26.90
2018-03-23T00:06:34.006Z,27.35
2018-03-23T00:09:01.475Z,26.40
2018-03-23T00:11:28.960Z,29.17
2018-03-23T00:13:57.168Z,27.33
2018-03-23T00:16:24.634Z,24.45
2018-03-23T00:18:52.206Z,25.05
2018-03-23T00:21:19.692Z,28.42
2018-03-23T00:23:47.920Z,25.12
2018-03-23T00:26:16.248Z,25.70
2018-03-23T00:28:44.600Z,26.45
2018-03-23T00:31:12.092Z,27.25
2018-03-23T00:33:39.703Z,27.37
2018-03-23T00:36:07.998Z,25.75
2018-03-23T00:38:35.463Z,25.77
2018-03-23T00:41:03.045Z,26.40
2018-03-23T00:43:31.344Z,25.88
2018-03-23T00:45:59.007Z,24.05
2018-03-23T00:48:26.464Z,28.02
2018-03-23T00:50:54.001Z,24.87
2018-03-23T00:53:21.476Z,26.40
2018-03-23T00:55:48.951Z,25.02
2018-03-23T00:58:16.421Z,25.48
2018-03-23T01:00:43.893Z,26.25
2018-03-23T01:03:11.412Z,26.33
2018-03-23T01:05:38.847Z,25.15
2018-03-23T01:08:06.391Z,24.80
2018-03-23T01:10:34.684Z,24.83
2018-03-23T01:13:02.184Z,26.65
2018-03-23T01:15:29.646Z,25.92
2018-03-23T01:17:57.109Z,26.52
2018-03-23T01:20:24.684Z,25.70
2018-03-23T01:22:52.143Z,26.02
2018-03-23T01:25:19.572Z,25.77
2018-03-23T01:27:47.036Z,29.17
2018-03-23T01:30:14.506Z,27.33
2018-03-23T01:32:42.762Z,27.62
2018-03-23T01:35:10.258Z,29.52
2018-03-23T01:37:37.695Z,26.60
2018-03-23T01:40:05.152Z,28.25
2018-03-23T01:42:32.912Z,29.73
2018-03-23T01:45:00.454Z,29.42
2018-03-23T01:47:28.728Z,29.27
2018-03-23T01:49:56.203Z,28.73
2018-03-23T01:52:24.415Z,30.15
2018-03-23T01:54:51.909Z,28.12
2018-03-23T01:57:19.425Z,29.00
2018-03-23T01:59:46.880Z,31.83
2018-03-23T02:02:14.352Z,30.67
2018-03-23T02:04:41.798Z,27.87
2018-03-23T02:07:09.321Z,28.95
2018-03-23T02:09:36.776Z,34.50
2018-03-23T02:12:05.016Z,28.33
2018-03-23T02:14:32.528Z,30.98
2018-03-23T02:17:00.043Z,31.98
2018-03-23T02:19:27.494Z,30.30
2018-03-23T02:21:54.977Z,30.60
2018-03-23T02:24:23.197Z,31.23
2018-03-23T02:26:50.647Z,34.58
2018-03-23T02:29:18.197Z,32.88
2018-03-23T02:31:45.669Z,30.83
2018-03-23T02:34:13.260Z,33.28
2018-03-23T02:36:40.729Z,31.60
2018-03-23T02:39:08.230Z,31.42
2018-03-23T02:41:35.684Z,32.22
2018-03-23T02:44:03.137Z,32.17
2018-03-23T02:46:30.618Z,32.67
2018-03-23T02:48:58.139Z,30.92
2018-03-23T02:51:25.607Z,31.83
2018-03-23T02:53:53.220Z,33.00
2018-03-23T02:56:20.676Z,34.28
2018-03-23T02:58:48.177Z,31.62
2018-03-23T03:01:15.649Z,30.62
2018-03-23T03:03:43.136Z,34.17
2018-03-23T03:06:10.556Z,30.45
2018-03-23T03:08:38.037Z,32.88
2018-03-23T03:11:05.484Z,31.27
2018-03-23T03:13:32.970Z,32.92
2018-03-23T03:16:00.424Z,33.10
2018-03-23T03:18:28.381Z,32.85
2018-03-23T03:20:56.007Z,33.63
2018-03-23T03:23:23.456Z,30.65
2018-03-23T03:25:50.977Z,33.70
2018-03-23T03:28:19.254Z,32.80
2018-03-23T03:30:47.490Z,30.80
2018-03-23T03:33:14.929Z,29.55
2018-03-23T03:35:42.387Z,28.55
2018-03-23T03:38:09.848Z,28.85
2018-03-23T03:40:37.374Z,32.67
2018-03-23T03:43:04.956Z,30.83
2018-03-23T03:45:32.425Z,31.37
2018-03-23T03:47:59.868Z,29.70
2018-03-23T03:50:27.335Z,33.95
2018-03-23T03:52:54.796Z,30.65
2018-03-23T03:55:22.292Z,32.30
2018-03-23T03:57:49.728Z,29.60
2018-03-23T04:00:17.203Z,30.25
2018-03-23T04:02:44.712Z,31.25
2018-03-23T04:05:12.289Z,35.88
2018-03-23T04:07:39.769Z,31.27
2018-03-23T04:10:07.208Z,32.53
2018-03-23T04:12:34.673Z,32.58
2018-03-23T04:15:02.916Z,30.27
2018-03-23T04:17:30.378Z,30.60
2018-03-23T04:19:57.853Z,34.28
2018-03-23T04:22:25.313Z,32.90
2018-03-23T04:24:52.752Z,33.10
2018-03-23T04:27:20.251Z,33.20
2018-03-23T04:29:48.487Z,32.53
2018-03-23T04:32:15.948Z,33.88
2018-03-23T04:34:43.546Z,31.92
2018-03-23T04:37:10.996Z,35.78
2018-03-23T04:39:38.461Z,33.67
2018-03-23T04:42:05.910Z,33.30
2018-03-23T04:44:33.839Z,33.25
2018-03-23T04:47:01.323Z,34.08
2018-03-23T04:49:28.790Z,32.60
2018-03-23T04:51:56.302Z,32.28
2018-03-23T04:54:23.776Z,31.40
2018-03-23T04:56:51.231Z,33.40
2018-03-23T04:59:18.699Z,33.97
2018-03-23T05:01:46.946Z,34.67
2018-03-23T05:04:14.416Z,32.60
2018-03-23T05:06:41.874Z,35.92
2018-03-23T05:09:09.367Z,33.75
2018-03-23T05:11:36.873Z,32.05
2018-03-23T05:14:04.348Z,32.35
2018-03-23T05:16:31.924Z,33.33
2018-03-23T05:19:00.201Z,34.47
2018-03-23T05:21:28.438Z,33.60
2018-03-23T05:23:55.919Z,34.30
2018-03-23T05:26:24.141Z,32.95
2018-03-23T05:28:51.620Z,32.97
2018-03-23T05:31:19.076Z,35.33
2018-03-23T05:33:46.536Z,33.50
2018-03-23T05:36:14.022Z,34.00
2018-03-23T05:38:42.325Z,35.28
2018-03-23T05:41:09.854Z,32.92
2018-03-23T05:43:38.104Z,36.10
2018-03-23T05:46:05.564Z,33.15
2018-03-23T05:48:33.016Z,33.63
2018-03-23T05:51:00.571Z,35.17
2018-03-23T05:53:28.030Z,35.67
2018-03-23T05:55:55.512Z,33.20
2018-03-23T05:58:23.736Z,34.17
2018-03-23T06:00:51.272Z,35.58
2018-03-23T06:05:52.603Z,34.75
2018-03-23T06:08:20.812Z,36.25
2018-03-23T06:10:48.317Z,34.40
2018-03-23T06:13:15.804Z,32.97
2018-03-23T06:15:43.291Z,34.03
2018-03-23T06:18:10.752Z,35.50
2018-03-23T06:20:38.205Z,28.10
2018-03-23T06:23:05.695Z,34.40
2018-03-23T06:25:33.146Z,31.60
2018-03-23T06:28:00.669Z,31.27
2018-03-23T06:30:28.112Z,34.33
2018-03-23T06:32:55.572Z,32.22
2018-03-23T06:35:23.031Z,30.95
2018-03-23T06:37:50.510Z,34.13
2018-03-23T06:40:18.041Z,32.58
2018-03-23T06:42:46.286Z,33.17
2018-03-23T06:45:14.397Z,30.17
2018-03-23T06:47:41.855Z,34.33
2018-03-23T06:50:09.383Z,32.88
2018-03-23T06:52:37.609Z,32.05
2018-03-23T06:55:05.138Z,32.78
2018-03-23T06:57:32.589Z,35.25
2018-03-23T07:00:00.053Z,33.80
2018-03-23T07:02:27.511Z,31.45
2018-03-23T07:04:54.964Z,34.13
2018-03-23T07:07:22.508Z,33.90
2018-03-23T07:09:49.957Z,34.38
2018-03-23T07:12:18.202Z,32.70
2018-03-23T07:14:45.660Z,34.20
2018-03-23T07:17:13.108Z,33.00
2018-03-23T07:19:40.612Z,35.88
2018-03-23T07:22:08.172Z,36.80
2018-03-23T07:24:35.715Z,32.40
2018-03-23T07:27:03.184Z,33.92
2018-03-23T07:29:30.644Z,33.67
2018-03-23T07:31:58.372Z,32.42
2018-03-23T07:34:26.615Z,32.28
2018-03-23T07:36:54.068Z,35.60
2018-03-23T07:39:22.153Z,35.88
2018-03-23T07:41:49.641Z,31.87
2018-03-23T07:44:17.845Z,35.67
2018-03-23T07:46:45.316Z,36.78
2018-03-23T07:49:12.789Z,34.25
2018-03-23T07:51:40.379Z,32.53
2018-03-23T07:54:08.603Z,33.85
2018-03-23T07:56:36.032Z,33.97
2018-03-23T07:59:03.494Z,34.83
2018-03-23T08:01:30.966Z,33.25
2018-03-23T08:03:58.562Z,36.08
2018-03-23T08:06:26.014Z,38.13
2018-03-23T08:08:53.483Z,34.88
2018-03-23T08:11:20.965Z,33.90
2018-03-23T08:13:48.572Z,34.30
2018-03-23T08:16:16.019Z,34.92
2018-03-23T08:18:43.521Z,34.58
2018-03-23T08:21:10.969Z,35.20
2018-03-23T08:23:38.438Z,35.35
2018-03-23T08:26:06.649Z,32.42
2018-03-23T08:28:34.233Z,36.38
2018-03-23T08:31:01.684Z,33.00
2018-03-23T08:33:29.156Z,32.97
2018-03-23T08:35:56.637Z,31.10
2018-03-23T08:38:24.879Z,32.33
2018-03-23T08:40:52.467Z,30.35
2018-03-23T08:43:20.712Z,31.17
2018-03-23T08:45:48.152Z,31.90
2018-03-23T08:48:15.606Z,29.80
2018-03-23T08:50:43.081Z,32.80
2018-03-23T08:53:10.538Z,30.92
2018-03-23T08:55:38.104Z,32.00
2018-03-23T08:58:05.556Z,29.80
2018-03-23T09:00:33.024Z,34.15
2018-03-23T09:03:00.484Z,34.17
2018-03-23T09:05:28.792Z,34.15
2018-03-23T09:07:56.349Z,35.28
2018-03-23T09:10:23.824Z,35.13
2018-03-23T09:12:51.244Z,33.05
2018-03-23T09:15:19.492Z,31.50
2018-03-23T09:17:46.923Z,32.13
2018-03-23T09:20:14.380Z,33.58
2018-03-23T09:22:41.968Z,32.17
2018-03-23T09:25:09.453Z,33.33
2018-03-23T09:27:37.648Z,32.47
2018-03-23T09:30:05.117Z,31.52
2018-03-23T09:32:32.576Z,32.35
2018-03-23T09:35:00.053Z,33.28
2018-03-23T09:37:28.307Z,32.70
2018-03-23T09:39:55.738Z,36.78
2018-03-23T09:42:23.204Z,32.67
2018-03-23T09:44:50.661Z,33.13
2018-03-23T09:47:18.149Z,33.92
2018-03-23T09:49:45.592Z,32.58
2018-03-23T09:52:13.052Z,32.50
2018-03-23T09:54:40.500Z,31.33
2018-03-23T09:57:08.004Z,30.67
2018-03-23T10:04:45.485Z,29.67
2018-03-23T10:07:12.963Z,30.70
2018-03-23T10:09:40.593Z,30.98
2018-03-23T10:12:08.042Z,28.40
2018-03-23T10:14:35.521Z,31.25
2018-03-23T10:17:03.419Z,29.95
2018-03-23T10:19:30.903Z,30.20
2018-03-23T10:21:58.304Z,30.88
2018-03-23T10:24:25.823Z,30.12
2018-03-23T10:26:53.314Z,31.58
2018-03-23T10:29:20.795Z,30.33
2018-03-23T10:31:48.249Z,29.12
2018-03-23T10:34:15.725Z,27.20
2018-03-23T10:36:43.195Z,27.85
2018-03-23T10:39:10.675Z,27.15
2018-03-23T10:41:38.152Z,25.65
2018-03-23T10:44:05.596Z,22.92
2018-03-23T10:46:33.055Z,25.88
2018-03-23T10:49:00.522Z,25.50
2018-03-23T10:51:28.104Z,25.58
2018-03-23T10:53:56.437Z,25.00
2018-03-23T10:56:23.917Z,25.12
2018-03-23T10:58:51.346Z,25.50
2018-03-23T11:01:24.529Z,25.95
2018-03-23T11:03:51.970Z,24.02
2018-03-23T11:06:19.441Z,25.30
2018-03-23T11:08:46.884Z,25.30
2018-03-23T11:11:14.359Z,23.77
2018-03-23T11:13:41.832Z,24.92
2018-03-23T11:16:09.304Z,22.65
2018-03-23T11:18:36.786Z,19.98
2018-03-23T11:21:05.009Z,21.80
2018-03-23T11:23:32.475Z,20.85
2018-03-23T11:25:59.946Z,20.37
2018-03-23T11:28:27.436Z,18.48
2018-03-23T11:30:54.906Z,19.90
2018-03-23T11:33:22.422Z,20.55
2018-03-23T11:35:50.677Z,20.55
2018-03-23T11:38:18.155Z,19.90
2018-03-23T11:40:46.375Z,20.42
2018-03-23T11:43:13.862Z,19.90
2018-03-23T11:45:42.149Z,20.15
2018-03-23T11:48:09.621Z,18.65
2018-03-23T11:50:37.073Z,19.73
2018-03-23T11:53:04.565Z,17.35
2018-03-23T11:55:32.800Z,16.80
2018-03-23T11:58:00.273Z,19.85
2018-03-23T12:00:27.732Z,19.48
2018-03-23T12:02:55.980Z,18.85
2018-03-23T12:05:23.479Z,20.10
2018-03-23T12:07:50.939Z,21.05
2018-03-23T12:10:18.383Z,20.17
2018-03-23T12:12:45.856Z,19.92
2018-03-23T12:15:13.302Z,19.33
2018-03-23T12:17:40.802Z,20.73
2018-03-23T12:20:08.371Z,22.05
2018-03-23T12:22:35.839Z,21.70
2018-03-23T12:25:03.319Z,22.13
2018-03-23T12:27:30.844Z,18.30
2018-03-23T12:29:58.255Z,21.20
2018-03-23T12:32:25.702Z,18.45
2018-03-23T12:34:53.249Z,20.10
2018-03-23T12:37:20.620Z,19.87
2018-03-23T12:39:48.635Z,19.83
2018-03-23T12:42:16.099Z,20.58
2018-03-23T12:44:43.572Z,19.92
2018-03-23T12:47:11.796Z,18.90
2018-03-23T12:49:39.347Z,19.27
2018-03-23T12:52:06.844Z,18.73
2018-03-23T12:54:35.071Z,19.27
2018-03-23T12:57:02.520Z,20.10
2018-03-23T12:59:29.997Z,18.50
2018-03-23T13:01:57.439Z,20.17
2018-03-23T13:04:24.892Z,20.70
2018-03-23T13:06:52.398Z,19.10
2018-03-23T13:09:19.860Z,20.50
2018-03-23T13:11:48.091Z,21.00
2018-03-23T13:14:15.569Z,21.08
2018-03-23T13:16:43.049Z,19.58
2018-03-23T13:19:10.593Z,19.83
2018-03-23T13:21:38.066Z,18.73
2018-03-23T13:24:06.280Z,18.80
2018-03-23T13:26:33.775Z,19.15
2018-03-23T13:29:01.231Z,18.92
2018-03-23T13:31:28.694Z,19.40
2018-03-23T13:33:56.913Z,16.23
2018-03-23T13:36:24.524Z,18.17
2018-03-23T13:38:51.974Z,19.37
2018-03-23T13:41:19.457Z,19.35
2018-03-23T13:43:46.903Z,19.45
2018-03-23T13:46:14.404Z,19.10
2018-03-23T13:48:41.848Z,19.45
2018-03-23T13:51:09.376Z,20.37
2018-03-23T13:53:36.853Z,18.62
2018-03-23T13:56:05.140Z,18.60
2018-03-23T13:58:38.137Z,18.45
2018-03-23T14:01:06.344Z,18.70
2018-03-23T14:03:33.820Z,17.70
2018-03-23T14:06:01.300Z,17.00
2018-03-23T14:08:29.523Z,15.88
2018-03-23T14:10:56.967Z,17.27
2018-03-23T14:13:24.439Z,15.25
2018-03-23T14:15:51.896Z,15.30
2018-03-23T14:18:19.349Z,16.67
2018-03-23T14:20:46.797Z,17.12
2018-03-23T14:23:14.380Z,15.60
2018-03-23T14:25:41.833Z,16.10
2018-03-23T14:28:09.290Z,13.65
2018-03-23T14:30:36.737Z,16.33
2018-03-23T14:33:04.197Z,14.35
2018-03-23T14:35:32.413Z,14.20
2018-03-23T14:38:00.653Z,14.35
2018-03-23T14:40:28.107Z,13.95
2018-03-23T14:42:55.573Z,14.70
2018-03-23T14:45:23.026Z,13.62
2018-03-23T14:47:50.477Z,14.65
2018-03-23T14:50:17.927Z,13.70
2018-03-23T14:52:45.391Z,13.88
2018-03-23T14:55:12.910Z,13.95
2018-03-23T14:57:40.352Z,13.95
2018-03-23T15:00:07.821Z,13.50
2018-03-23T15:02:36.081Z,15.00
2018-03-23T15:05:03.543Z,15.40
2018-03-23T15:07:30.977Z,14.95
2018-03-23T15:09:58.469Z,15.85
2018-03-23T15:12:25.919Z,15.10
2018-03-23T15:14:53.407Z,16.00
2018-03-23T15:17:20.941Z,16.77
2018-03-23T15:19:48.487Z,16.15
2018-03-23T15:22:15.996Z,16.85
2018-03-23T15:24:43.475Z,18.33
2018-03-23T15:27:11.684Z,18.20
2018-03-23T15:29:39.140Z,19.73
2018-03-23T15:32:06.751Z,18.80
2018-03-23T15:34:34.982Z,18.80
2018-03-23T15:37:03.496Z,20.17
2018-03-23T15:39:31.024Z,21.33
2018-03-23T15:41:58.459Z,18.95
2018-03-23T15:44:25.939Z,21.87
2018-03-23T15:46:53.409Z,19.58
2018-03-23T15:49:20.874Z,21.42
2018-03-23T15:51:48.330Z,21.12
2018-03-23T15:54:15.801Z,21.23
2018-03-23T15:56:44.032Z,20.05
2018-03-23T15:59:11.530Z,23.45
2018-03-23T16:01:39.023Z,21.42
2018-03-23T16:04:06.458Z,20.12
2018-03-23T16:06:34.691Z,20.95
2018-03-23T16:09:02.161Z,22.25
2018-03-23T16:11:29.656Z,21.85
2018-03-23T16:13:57.125Z,22.98
2018-03-23T16:16:24.584Z,19.48
2018-03-23T16:18:52.023Z,19.75
2018-03-23T16:21:19.508Z,22.30
2018-03-23T16:23:46.955Z,21.65
2018-03-23T16:26:14.534Z,21.33
2018-03-23T16:28:41.980Z,20.05
2018-03-23T16:31:09.438Z,20.35
2018-03-23T16:33:36.978Z,21.98
2018-03-23T16:36:05.418Z,22.65
2018-03-23T16:38:32.965Z,21.65
2018-03-23T16:41:01.161Z,20.92
2018-03-23T16:43:28.779Z,21.12
2018-03-23T16:45:56.255Z,21.45
2018-03-23T16:48:23.792Z,20.42
2018-03-23T16:50:51.239Z,19.52
2018-03-23T16:53:18.691Z,19.70
2018-03-23T16:55:46.194Z,20.10
2018-03-23T16:58:13.664Z,21.15
2018-03-23T17:00:41.108Z,23.20
2018-03-23T17:03:09.331Z,22.15
2018-03-23T17:05:36.772Z,21.30
2018-03-23T17:08:04.237Z,22.17
2018-03-23T17:10:31.667Z,20.55
2018-03-23T17:12:59.973Z,20.75
2018-03-23T17:15:27.421Z,22.08
2018-03-23T17:17:54.967Z,21.02
2018-03-23T17:20:22.461Z,19.52
2018-03-23T17:22:49.909Z,20.35
2018-03-23T17:25:17.386Z,22.33
2018-03-23T17:27:46.330Z,21.23
2018-03-23T17:30:13.781Z,21.10
2018-03-23T17:32:41.224Z,20.55
2018-03-23T17:35:08.715Z,20.20
2018-03-23T17:37:36.168Z,21.55
2018-03-23T17:40:03.630Z,20.98
2018-03-23T17:42:31.087Z,21.02
2018-03-23T17:44:58.543Z,20.60
2018-03-23T17:47:26.081Z,20.10
2018-03-23T17:49:53.545Z,21.10
2018-03-23T17:52:20.975Z,21.35
2018-03-23T17:54:48.440Z,21.80
2018-03-23T17:57:15.890Z,20.73
2018-03-23T17:59:43.413Z,21.25
2018-03-23T18:02:10.860Z,21.15
2018-03-23T18:04:38.353Z,20.42
2018-03-23T18:07:06.569Z,19.83
2018-03-23T18:09:34.026Z,21.20
2018-03-23T18:12:01.500Z,21.40
2018-03-23T18:14:28.962Z,20.83
2018-03-23T18:16:56.444Z,21.40
2018-03-23T18:19:24.660Z,19.95
2018-03-23T18:21:52.216Z,18.40
2018-03-23T18:24:19.671Z,20.85
2018-03-23T18:26:47.115Z,20.90
2018-03-23T18:29:14.633Z,20.37
2018-03-23T18:31:42.088Z,20.30
2018-03-23T18:34:10.318Z,21.10
2018-03-23T18:36:37.768Z,20.08
2018-03-23T18:39:05.219Z,22.40
2018-03-23T18:41:32.667Z,21.35
2018-03-23T18:44:00.202Z,19.30
2018-03-23T18:46:28.458Z,20.55
2018-03-23T18:48:55.974Z,21.23
2018-03-23T18:51:23.422Z,21.25
2018-03-23T18:53:50.953Z,20.33
2018-03-23T18:56:19.174Z,20.17
2018-03-23T18:58:46.732Z,20.77
2018-03-23T19:01:14.167Z,22.02
2018-03-23T19:03:41.629Z,21.23
2018-03-23T19:06:09.090Z,20.80
2018-03-23T19:08:36.561Z,20.77
2018-03-23T19:11:03.995Z,20.75
2018-03-23T19:13:31.475Z,21.00
2018-03-23T19:15:58.979Z,21.58
2018-03-23T19:18:27.196Z,20.50
2018-03-23T19:20:55.417Z,21.30
2018-03-23T19:23:23.656Z,21.45
2018-03-23T19:25:52.737Z,20.95
2018-03-23T19:28:20.225Z,20.75
2018-03-23T19:30:47.688Z,19.65
2018-03-23T19:33:15.148Z,21.67
2018-03-23T19:35:43.373Z,20.77
2018-03-23T19:38:10.911Z,22.30
2018-03-23T19:40:38.385Z,21.12
2018-03-23T19:43:05.832Z,21.67
2018-03-23T19:45:33.324Z,20.08
2018-03-23T19:48:00.763Z,21.20
2018-03-23T19:50:28.233Z,21.17
2018-03-23T19:52:55.764Z,19.75
2018-03-23T19:55:23.231Z,19.85
2018-03-23T19:57:50.701Z,20.42
2018-03-23T20:00:18.276Z,22.00
2018-03-23T20:02:45.842Z,19.95
2018-03-23T20:05:13.242Z,19.98
2018-03-23T20:07:40.843Z,20.27
2018-03-23T20:10:08.407Z,21.60
2018-03-23T20:12:35.935Z,21.10
2018-03-23T20:15:03.418Z,20.77
2018-03-23T20:17:36.429Z,20.73
2018-03-23T20:20:10.554Z,21.70
2018-03-23T20:22:38.004Z,21.45
2018-03-23T20:25:06.243Z,21.02
2018-03-23T20:27:39.423Z,20.90
2018-03-23T20:30:06.937Z,22.08
2018-03-23T20:32:34.416Z,21.33
2018-03-23T20:35:01.889Z,18.35
2018-03-23T20:37:29.393Z,19.20
2018-03-23T20:39:57.598Z,19.35
2018-03-23T20:42:25.072Z,19.33
2018-03-23T20:44:52.578Z,18.52
2018-03-23T20:47:20.819Z,18.52
2018-03-23T20:49:48.268Z,20.40
2018-03-23T20:52:15.710Z,21.17
2018-03-23T20:54:43.188Z,19.62
2018-03-23T20:57:10.645Z,19.00
2018-03-23T20:59:38.083Z,20.20
2018-03-23T21:02:05.549Z,19.33
2018-03-23T21:04:33.079Z,17.77
2018-03-23T21:07:01.153Z,18.67
2018-03-23T21:09:28.613Z,19.10
2018-03-23T21:11:56.058Z,19.65
2018-03-23T21:14:23.587Z,16.33
2018-03-23T21:16:51.834Z,18.50
2018-03-23T21:19:20.217Z,18.17
2018-03-23T21:21:47.647Z,18.20
2018-03-23T21:24:15.100Z,19.02
2018-03-23T21:26:42.589Z,17.33
2018-03-23T21:29:10.069Z,18.33
2018-03-23T21:31:38.275Z,19.02
2018-03-23T21:34:05.732Z,18.12
2018-03-23T21:36:33.191Z,17.05
2018-03-23T21:39:00.653Z,18.95
2018-03-23T21:41:28.093Z,18.60
2018-03-23T21:43:55.560Z,17.15
2018-03-23T21:46:23.025Z,17.65
2018-03-23T21:48:50.512Z,15.70
2018-03-23T21:51:17.944Z,16.73
2018-03-23T21:53:45.456Z,18.25
2018-03-23T21:56:12.900Z,17.25
2018-03-23T21:58:41.136Z,16.98
2018-03-23T22:01:09.428Z,19.12
2018-03-23T22:03:36.999Z,20.70
2018-03-23T22:06:05.236Z,19.17
2018-03-23T22:08:32.681Z,22.48
2018-03-23T22:11:00.150Z,19.33
2018-03-23T22:13:27.645Z,20.20
2018-03-23T22:15:55.067Z,19.20
2018-03-23T22:18:22.539Z,20.80
2018-03-23T22:20:50.785Z,20.83
2018-03-23T22:23:18.247Z,20.67
2018-03-23T22:25:46.458Z,20.98
2018-03-23T22:28:14.685Z,20.60
2018-03-23T22:30:42.162Z,19.70
2018-03-23T22:33:09.600Z,20.55
2018-03-23T22:35:37.063Z,19.67
2018-03-23T22:38:04.583Z,19.27
2018-03-23T22:40:32.064Z,17.92
2018-03-23T22:42:59.507Z,20.65
2018-03-23T22:45:27.002Z,21.08
2018-03-23T22:47:54.489Z,20.45
2018-03-23T22:50:22.784Z,21.60
2018-03-23T22:52:50.298Z,22.52
2018-03-23T22:55:17.755Z,20.52
2018-03-23T22:57:46.801Z,22.05
2018-03-23T23:00:14.223Z,22.05
2018-03-23T23:02:41.699Z,24.08
2018-03-23T23:05:09.147Z,22.75
2018-03-23T23:07:36.677Z,22.85
2018-03-23T23:10:04.944Z,23.48
2018-03-23T23:12:32.833Z,22.45
2018-03-23T23:15:00.361Z,22.40
2018-03-23T23:17:27.822Z,22.58
2018-03-23T23:19:56.291Z,23.70
2018-03-23T23:22:23.770Z,24.05
2018-03-23T23:24:51.247Z,23.92
2018-03-23T23:27:19.455Z,24.08
2018-03-23T23:29:46.943Z,21.90
2018-03-23T23:32:14.393Z,22.23
2018-03-23T23:34:41.848Z,23.95
2018-03-23T23:37:09.363Z,23.95
2018-03-23T23:39:36.824Z,23.38
2018-03-23T23:42:04.291Z,23.17
2018-03-23T23:44:31.763Z,22.67
2018-03-23T23:46:59.208Z,21.92
2018-03-23T23:49:26.677Z,24.25
2018-03-23T23:51:54.108Z,23.70
2018-03-23T23:54:21.563Z,24.23
2018-03-23T23:56:49.045Z,24.85
2018-03-23T23:59:16.529Z,26.70
